sensor_id;sensor_type;location;lat;lon;timestamp;pressure;altitude;pressure_sealevel;temperature;humidity
9460;BME280;4768;42.664;23.240;2023-04-23T00:01:44;-9587.00;;;6.21;100.00
9460;BME280;4768;42.664;23.240;2023-04-23T00:04:14;-9588.28;;;6.25;100.00
9460;BME280;4768;42.664;23.240;2023-04-23T00:06:43;-9591.25;;;6.36;100.00
9460;BME280;4768;42.664;23.240;2023-04-23T00:09:12;-9590.84;;;6.34;100.00
9460;BME280;4768;42.664;23.240;2023-04-23T00:11:40;-9592.69;;;6.41;100.00
9460;BME280;4768;42.664;23.240;2023-04-23T00:14:07;-9594.66;;;6.48;100.00
9460;BME280;4768;42.664;23.240;2023-04-23T00:16:35;-9592.97;;;6.42;100.00
9460;BME280;4768;42.664;23.240;2023-04-23T00:19:02;-9588.84;;;6.27;100.00
9460;BME280;4768;42.664;23.240;2023-04-23T00:21:30;-9585.75;;;6.17;100.00
9460;BME280;4768;42.664;23.240;2023-04-23T00:23:57;-9585.03;;;6.14;100.00
9460;BME280;4768;42.664;23.240;2023-04-23T00:26:24;-9587.16;;;6.22;100.00
9460;BME280;4768;42.664;23.240;2023-04-23T00:28:50;-9586.88;;;6.21;100.00
9460;BME280;4768;42.664;23.240;2023-04-23T00:31:17;-9588.56;;;6.26;100.00
9460;BME280;4768;42.664;23.240;2023-04-23T00:33:44;-9587.72;;;6.24;100.00
9460;BME280;4768;42.664;23.240;2023-04-23T00:36:10;-9585.59;;;6.16;100.00
9460;BME280;4768;42.664;23.240;2023-04-23T00:38:38;-9582.34;;;6.05;100.00
9460;BME280;4768;42.664;23.240;2023-04-23T00:41:06;-9580.09;;;5.97;100.00
9460;BME280;4768;42.664;23.240;2023-04-23T00:43:32;-9580.38;;;5.98;100.00
9460;BME280;4768;42.664;23.240;2023-04-23T00:45:59;-9581.50;;;6.02;100.00
9460;BME280;4768;42.664;23.240;2023-04-23T00:48:27;-9581.50;;;6.02;100.00
9460;BME280;4768;42.664;23.240;2023-04-23T00:50:58;-9574.00;;;5.76;100.00
9460;BME280;4768;42.664;23.240;2023-04-23T00:53:25;-9576.81;;;5.85;100.00
9460;BME280;4768;42.664;23.240;2023-04-23T00:55:53;-9580.50;;;5.98;100.00
9460;BME280;4768;42.664;23.240;2023-04-23T00:58:20;-9580.09;;;5.97;100.00
9460;BME280;4768;42.664;23.240;2023-04-23T01:00:48;-9578.81;;;5.92;100.00
9460;BME280;4768;42.664;23.240;2023-04-23T01:03:16;-9573.84;;;5.75;100.00
9460;BME280;4768;42.664;23.240;2023-04-23T01:05:46;-9571.44;;;5.67;100.00
9460;BME280;4768;42.664;23.240;2023-04-23T01:08:15;-9569.19;;;5.59;100.00
9460;BME280;4768;42.664;23.240;2023-04-23T01:10:43;-9566.78;;;5.50;100.00
9460;BME280;4768;42.664;23.240;2023-04-23T01:13:12;-9567.91;;;5.54;100.00
9460;BME280;4768;42.664;23.240;2023-04-23T01:15:40;-9570.75;;;5.64;100.00
9460;BME280;4768;42.664;23.240;2023-04-23T01:18:06;-9571.31;;;5.66;100.00
9460;BME280;4768;42.664;23.240;2023-04-23T01:20:34;-9569.88;;;5.61;100.00
9460;BME280;4768;42.664;23.240;2023-04-23T01:23:03;-9574.84;;;5.78;100.00
9460;BME280;4768;42.664;23.240;2023-04-23T01:25:30;-9575.84;;;5.82;100.00
9460;BME280;4768;42.664;23.240;2023-04-23T01:27:57;-9575.28;;;5.80;100.00
9460;BME280;4768;42.664;23.240;2023-04-23T01:30:26;-9571.88;;;5.68;100.00
9460;BME280;4768;42.664;23.240;2023-04-23T01:32:53;-9572.16;;;5.69;100.00
9460;BME280;4768;42.664;23.240;2023-04-23T01:35:20;-9568.75;;;5.57;100.00
9460;BME280;4768;42.664;23.240;2023-04-23T01:37:48;-9565.22;;;5.45;100.00
9460;BME280;4768;42.664;23.240;2023-04-23T01:40:18;-9566.34;;;5.49;100.00
9460;BME280;4768;42.664;23.240;2023-04-23T01:42:45;-9567.50;;;5.53;100.00
9460;BME280;4768;42.664;23.240;2023-04-23T01:45:13;-9571.72;;;5.68;100.00
9460;BME280;4768;42.664;23.240;2023-04-23T01:47:40;-9576.81;;;5.85;100.00
9460;BME280;4768;42.664;23.240;2023-04-23T01:50:08;-9576.69;;;5.85;100.00
9460;BME280;4768;42.664;23.240;2023-04-23T01:52:34;-9574.00;;;5.76;100.00
9460;BME280;4768;42.664;23.240;2023-04-23T01:55:01;-9571.31;;;5.66;100.00
9460;BME280;4768;42.664;23.240;2023-04-23T01:57:30;-9566.22;;;5.48;100.00
9460;BME280;4768;42.664;23.240;2023-04-23T02:00:02;-9562.25;;;5.34;100.00
9460;BME280;4768;42.664;23.240;2023-04-23T02:02:30;-9559.28;;;5.24;100.00
9460;BME280;4768;42.664;23.240;2023-04-23T02:04:57;-9556.19;;;5.13;100.00
9460;BME280;4768;42.664;23.240;2023-04-23T02:07:27;-9554.19;;;5.06;100.00
9460;BME280;4768;42.664;23.240;2023-04-23T02:09:54;-9556.88;;;5.16;100.00
9460;BME280;4768;42.664;23.240;2023-04-23T02:12:21;-9555.47;;;5.11;100.00
9460;BME280;4768;42.664;23.240;2023-04-23T02:14:49;-9554.47;;;5.07;100.00
9460;BME280;4768;42.664;23.240;2023-04-23T02:17:16;-9554.19;;;5.06;100.00
9460;BME280;4768;42.664;23.240;2023-04-23T02:19:43;-9552.63;;;5.01;100.00
9460;BME280;4768;42.664;23.240;2023-04-23T02:22:10;-9553.63;;;5.04;100.00
9460;BME280;4768;42.664;23.240;2023-04-23T02:24:37;-9555.47;;;5.11;100.00
9460;BME280;4768;42.664;23.240;2023-04-23T02:27:06;-9554.34;;;5.07;100.00
9460;BME280;4768;42.664;23.240;2023-04-23T02:29:33;-9554.75;;;5.08;100.00
9460;BME280;4768;42.664;23.240;2023-04-23T02:32:02;-9555.63;;;5.11;100.00
9460;BME280;4768;42.664;23.240;2023-04-23T02:34:29;-9554.91;;;5.09;100.00
9460;BME280;4768;42.664;23.240;2023-04-23T02:36:56;-9553.47;;;5.04;100.00
9460;BME280;4768;42.664;23.240;2023-04-23T02:39:23;-9552.22;;;4.99;100.00
9460;BME280;4768;42.664;23.240;2023-04-23T02:41:50;-9551.50;;;4.97;100.00
9460;BME280;4768;42.664;23.240;2023-04-23T02:44:17;-9553.47;;;5.04;100.00
9460;BME280;4768;42.664;23.240;2023-04-23T02:46:43;-9552.06;;;4.99;100.00
9460;BME280;4768;42.664;23.240;2023-04-23T02:49:12;-9554.91;;;5.09;100.00
9460;BME280;4768;42.664;23.240;2023-04-23T02:51:39;-9555.19;;;5.10;100.00
9460;BME280;4768;42.664;23.240;2023-04-23T02:54:06;-9553.91;;;5.05;100.00
9460;BME280;4768;42.664;23.240;2023-04-23T02:56:32;-9554.34;;;5.07;100.00
9460;BME280;4768;42.664;23.240;2023-04-23T02:58:59;-9553.91;;;5.05;100.00
9460;BME280;4768;42.664;23.240;2023-04-23T03:01:26;-9552.34;;;5.00;100.00
9460;BME280;4768;42.664;23.240;2023-04-23T03:03:53;-9552.06;;;4.99;100.00
9460;BME280;4768;42.664;23.240;2023-04-23T03:06:21;-9550.81;;;4.94;100.00
9460;BME280;4768;42.664;23.240;2023-04-23T03:08:48;-9549.53;;;4.90;100.00
9460;BME280;4768;42.664;23.240;2023-04-23T03:11:14;-9550.94;;;4.95;100.00
9460;BME280;4768;42.664;23.240;2023-04-23T03:13:41;-9555.75;;;5.12;100.00
9460;BME280;4768;42.664;23.240;2023-04-23T03:16:08;-9556.19;;;5.13;100.00
9460;BME280;4768;42.664;23.240;2023-04-23T03:18:35;-9555.03;;;5.09;100.00
9460;BME280;4768;42.664;23.240;2023-04-23T03:21:02;-9553.47;;;5.04;100.00
9460;BME280;4768;42.664;23.240;2023-04-23T03:23:30;-9548.13;;;4.85;100.00
9460;BME280;4768;42.664;23.240;2023-04-23T03:25:57;-9548.25;;;4.85;100.00
9460;BME280;4768;42.664;23.240;2023-04-23T03:28:24;-9547.53;;;4.83;100.00
9460;BME280;4768;42.664;23.240;2023-04-23T03:30:51;-9547.41;;;4.82;100.00
9460;BME280;4768;42.664;23.240;2023-04-23T03:33:17;-9549.53;;;4.90;100.00
9460;BME280;4768;42.664;23.240;2023-04-23T03:35:44;-9550.94;;;4.95;100.00
9460;BME280;4768;42.664;23.240;2023-04-23T03:38:11;-9549.25;;;4.89;100.00
9460;BME280;4768;42.664;23.240;2023-04-23T03:40:39;-9548.97;;;4.88;100.00
9460;BME280;4768;42.664;23.240;2023-04-23T03:43:06;-9548.97;;;4.88;100.00
9460;BME280;4768;42.664;23.240;2023-04-23T03:45:32;-9550.50;;;4.93;100.00
9460;BME280;4768;42.664;23.240;2023-04-23T03:47:59;-9549.81;;;4.91;100.00
9460;BME280;4768;42.664;23.240;2023-04-23T03:50:26;-9549.81;;;4.91;100.00
9460;BME280;4768;42.664;23.240;2023-04-23T03:52:53;-9551.94;;;4.98;100.00
9460;BME280;4768;42.664;23.240;2023-04-23T03:55:20;-9553.78;;;5.05;100.00
9460;BME280;4768;42.664;23.240;2023-04-23T03:57:48;-9556.47;;;5.14;100.00
9460;BME280;4768;42.664;23.240;2023-04-23T04:00:15;-9558.28;;;5.21;100.00
9460;BME280;4768;42.664;23.240;2023-04-23T04:02:42;-9562.25;;;5.34;100.00
9460;BME280;4768;42.664;23.240;2023-04-23T04:05:09;-9563.66;;;5.39;100.00
9460;BME280;4768;42.664;23.240;2023-04-23T04:07:36;-9566.63;;;5.50;100.00
9460;BME280;4768;42.664;23.240;2023-04-23T04:10:04;-9571.59;;;5.67;100.00
9460;BME280;4768;42.664;23.240;2023-04-23T04:12:30;-9574.41;;;5.77;100.00
9460;BME280;4768;42.664;23.240;2023-04-23T04:14:59;-9575.69;;;5.81;100.00
9460;BME280;4768;42.664;23.240;2023-04-23T04:17:27;-9579.66;;;5.95;100.00
9460;BME280;4768;42.664;23.240;2023-04-23T04:19:53;-9582.47;;;6.05;100.00
9460;BME280;4768;42.664;23.240;2023-04-23T04:22:20;-9592.81;;;6.41;100.00
9460;BME280;4768;42.664;23.240;2023-04-23T04:24:47;-9600.31;;;6.68;100.00
9460;BME280;4768;42.664;23.240;2023-04-23T04:27:16;-9605.28;;;6.85;100.00
9460;BME280;4768;42.664;23.240;2023-04-23T04:29:43;-9605.69;;;6.86;100.00
9460;BME280;4768;42.664;23.240;2023-04-23T04:32:11;-9609.81;;;7.01;100.00
9460;BME280;4768;42.664;23.240;2023-04-23T04:34:38;-9615.75;;;7.21;100.00
9460;BME280;4768;42.664;23.240;2023-04-23T04:37:04;-9617.31;;;7.27;100.00
9460;BME280;4768;42.664;23.240;2023-04-23T04:39:32;-9625.50;;;7.56;100.00
9460;BME280;4768;42.664;23.240;2023-04-23T04:41:58;-9620.00;;;7.36;100.00
9460;BME280;4768;42.664;23.240;2023-04-23T04:44:27;-9621.69;;;7.42;100.00
9460;BME280;4768;42.664;23.240;2023-04-23T04:46:54;-9627.66;;;7.63;100.00
9460;BME280;4768;42.664;23.240;2023-04-23T04:49:22;-9639.53;;;8.05;100.00
9460;BME280;4768;42.664;23.240;2023-04-23T04:51:49;-9644.38;;;8.21;100.00
9460;BME280;4768;42.664;23.240;2023-04-23T04:54:18;-9640.41;;;8.08;100.00
9460;BME280;4768;42.664;23.240;2023-04-23T04:56:45;-9638.41;;;8.01;100.00
9460;BME280;4768;42.664;23.240;2023-04-23T04:59:12;-9644.22;;;8.21;100.00
9460;BME280;4768;42.664;23.240;2023-04-23T05:01:38;-9646.91;;;8.30;100.00
9460;BME280;4768;42.664;23.240;2023-04-23T05:04:05;-9651.44;;;8.46;100.00
9460;BME280;4768;42.664;23.240;2023-04-23T05:06:33;-9650.19;;;8.42;100.00
9460;BME280;4768;42.664;23.240;2023-04-23T05:09:00;-9650.88;;;8.44;100.00
9460;BME280;4768;42.664;23.240;2023-04-23T05:11:27;-9652.31;;;8.49;100.00
9460;BME280;4768;42.664;23.240;2023-04-23T05:13:53;-9637.56;;;7.98;100.00
9460;BME280;4768;42.664;23.240;2023-04-23T05:16:20;-9632.47;;;7.80;100.00
9460;BME280;4768;42.664;23.240;2023-04-23T05:18:47;-9627.22;;;7.62;100.00
9460;BME280;4768;42.664;23.240;2023-04-23T05:21:14;-9621.84;;;7.43;100.00
9460;BME280;4768;42.664;23.240;2023-04-23T05:23:42;-9642.38;;;8.15;100.00
9460;BME280;4768;42.664;23.240;2023-04-23T05:26:09;-9632.88;;;7.81;100.00
9460;BME280;4768;42.664;23.240;2023-04-23T05:28:36;-9649.75;;;8.40;100.00
9460;BME280;4768;42.664;23.240;2023-04-23T05:31:02;-9643.09;;;8.17;100.00
9460;BME280;4768;42.664;23.240;2023-04-23T05:33:29;-9637.69;;;7.98;100.00
9460;BME280;4768;42.664;23.240;2023-04-23T05:35:56;-9647.19;;;8.31;100.00
9460;BME280;4768;42.664;23.240;2023-04-23T05:38:23;-9646.22;;;8.28;100.00
9460;BME280;4768;42.664;23.240;2023-04-23T05:40:51;-9641.09;;;8.10;100.00
9460;BME280;4768;42.664;23.240;2023-04-23T05:43:18;-9654.84;;;8.58;100.00
9460;BME280;4768;42.664;23.240;2023-04-23T05:45:45;-9638.97;;;8.03;100.00
9460;BME280;4768;42.664;23.240;2023-04-23T05:48:11;-9629.06;;;7.68;100.00
9460;BME280;4768;42.664;23.240;2023-04-23T05:50:38;-9636.28;;;7.93;100.00
9460;BME280;4768;42.664;23.240;2023-04-23T05:53:05;-9635.56;;;7.91;100.00
9460;BME280;4768;42.664;23.240;2023-04-23T05:55:32;-9634.16;;;7.86;100.00
9460;BME280;4768;42.664;23.240;2023-04-23T05:58:00;-9639.25;;;8.04;100.00
9460;BME280;4768;42.664;23.240;2023-04-23T06:00:27;-9637.69;;;7.98;100.00
9460;BME280;4768;42.664;23.240;2023-04-23T06:02:54;-9638.53;;;8.01;100.00
9460;BME280;4768;42.664;23.240;2023-04-23T06:05:21;-9645.63;;;8.26;100.00
9460;BME280;4768;42.664;23.240;2023-04-23T06:07:47;-9654.84;;;8.58;100.00
9460;BME280;4768;42.664;23.240;2023-04-23T06:10:14;-9667.47;;;9.02;100.00
9460;BME280;4768;42.664;23.240;2023-04-23T06:12:41;-9681.22;;;9.50;100.00
9460;BME280;4768;42.664;23.240;2023-04-23T06:15:10;-9686.47;;;9.68;100.00
9460;BME280;4768;42.664;23.240;2023-04-23T06:17:36;-9672.28;;;9.19;100.00
9460;BME280;4768;42.664;23.240;2023-04-23T06:20:04;-9674.97;;;9.28;100.00
9460;BME280;4768;42.664;23.240;2023-04-23T06:22:33;-9683.34;;;9.58;100.00
9460;BME280;4768;42.664;23.240;2023-04-23T06:25:00;-9692.44;;;9.89;100.00
9460;BME280;4768;42.664;23.240;2023-04-23T06:27:26;-9715.56;;;10.70;100.00
9460;BME280;4768;42.664;23.240;2023-04-23T06:29:53;-9682.22;;;9.54;100.00
9460;BME280;4768;42.664;23.240;2023-04-23T06:32:21;-9688.47;;;9.75;100.00
9460;BME280;4768;42.664;23.240;2023-04-23T06:34:49;-9708.47;;;10.45;100.00
9460;BME280;4768;42.664;23.240;2023-04-23T06:37:15;-9708.19;;;10.44;100.00
9460;BME280;4768;42.664;23.240;2023-04-23T06:39:42;-9693.72;;;9.94;100.00
9460;BME280;4768;42.664;23.240;2023-04-23T06:42:09;-9716.69;;;10.74;100.00
9460;BME280;4768;42.664;23.240;2023-04-23T06:44:35;-9714.00;;;10.64;100.00
9460;BME280;4768;42.664;23.240;2023-04-23T06:47:02;-9714.56;;;10.66;100.00
9460;BME280;4768;42.664;23.240;2023-04-23T06:49:30;-9728.78;;;11.16;100.00
9460;BME280;4768;42.664;23.240;2023-04-23T06:51:57;-9735.00;;;11.38;100.00
9460;BME280;4768;42.664;23.240;2023-04-23T06:54:24;-9724.94;;;11.03;100.00
9460;BME280;4768;42.664;23.240;2023-04-23T06:56:51;-9726.78;;;11.09;100.00
9460;BME280;4768;42.664;23.240;2023-04-23T06:59:17;-9722.38;;;10.94;100.00
9460;BME280;4768;42.664;23.240;2023-04-23T07:01:45;-9736.00;;;11.41;100.00
9460;BME280;4768;42.664;23.240;2023-04-23T07:04:11;-9731.31;;;11.25;100.00
9460;BME280;4768;42.664;23.240;2023-04-23T07:06:39;-9730.47;;;11.22;100.00
9460;BME280;4768;42.664;23.240;2023-04-23T07:09:06;-9732.75;;;11.30;100.00
9460;BME280;4768;42.664;23.240;2023-04-23T07:11:33;-9720.97;;;10.89;100.00
9460;BME280;4768;42.664;23.240;2023-04-23T07:14:01;-9717.56;;;10.77;100.00
9460;BME280;4768;42.664;23.240;2023-04-23T07:16:28;-9738.56;;;11.50;100.00
9460;BME280;4768;42.664;23.240;2023-04-23T07:18:57;-9733.75;;;11.33;100.00
9460;BME280;4768;42.664;23.240;2023-04-23T07:21:25;-9732.59;;;11.29;100.00
9460;BME280;4768;42.664;23.240;2023-04-23T07:23:55;-9716.56;;;10.73;100.00
9460;BME280;4768;42.664;23.240;2023-04-23T07:26:22;-9725.78;;;11.06;100.00
9460;BME280;4768;42.664;23.240;2023-04-23T07:28:49;-9746.53;;;11.78;100.00
9460;BME280;4768;42.664;23.240;2023-04-23T07:31:16;-9730.47;;;11.22;100.00
9460;BME280;4768;42.664;23.240;2023-04-23T07:33:43;-9729.34;;;11.18;100.00
9460;BME280;4768;42.664;23.240;2023-04-23T07:36:10;-9737.16;;;11.45;100.00
9460;BME280;4768;42.664;23.240;2023-04-23T07:38:37;-9766.00;;;12.46;100.00
9460;BME280;4768;42.664;23.240;2023-04-23T07:41:05;-9765.56;;;12.44;100.00
9460;BME280;4768;42.664;23.240;2023-04-23T07:43:32;-9757.31;;;12.15;100.00
9460;BME280;4768;42.664;23.240;2023-04-23T07:45:58;-9757.75;;;12.17;100.00
9460;BME280;4768;42.664;23.240;2023-04-23T07:48:25;-9761.44;;;12.30;100.00
9460;BME280;4768;42.664;23.240;2023-04-23T07:50:52;-9758.88;;;12.21;100.00
9460;BME280;4768;42.664;23.240;2023-04-23T07:53:20;-9757.75;;;12.17;100.00
9460;BME280;4768;42.664;23.240;2023-04-23T07:55:47;-9765.56;;;12.44;100.00
9460;BME280;4768;42.664;23.240;2023-04-23T07:58:15;-9782.06;;;13.02;100.00
9460;BME280;4768;42.664;23.240;2023-04-23T08:00:41;-9776.22;;;12.81;100.00
9460;BME280;4768;42.664;23.240;2023-04-23T08:03:08;-9776.38;;;12.82;100.00
9460;BME280;4768;42.664;23.240;2023-04-23T08:05:35;-9768.53;;;12.54;100.00
9460;BME280;4768;42.664;23.240;2023-04-23T08:08:03;-9773.66;;;12.72;100.00
9460;BME280;4768;42.664;23.240;2023-04-23T08:10:30;-9786.88;;;13.18;100.00
9460;BME280;4768;42.664;23.240;2023-04-23T08:12:56;-9796.00;;;13.50;100.00
9460;BME280;4768;42.664;23.240;2023-04-23T08:15:25;-9803.38;;;13.76;100.00
9460;BME280;4768;42.664;23.240;2023-04-23T08:17:51;-9801.41;;;13.69;100.00
9460;BME280;4768;42.664;23.240;2023-04-23T08:20:18;-9818.63;;;14.29;100.00
9460;BME280;4768;42.664;23.240;2023-04-23T08:22:45;-9805.09;;;13.82;100.00
9460;BME280;4768;42.664;23.240;2023-04-23T08:25:12;-9801.97;;;13.71;100.00
9460;BME280;4768;42.664;23.240;2023-04-23T08:27:39;-9815.91;;;14.19;100.00
9460;BME280;4768;42.664;23.240;2023-04-23T08:30:06;-9780.78;;;12.97;100.00
9460;BME280;4768;42.664;23.240;2023-04-23T08:32:35;-9825.00;;;14.51;100.00
9460;BME280;4768;42.664;23.240;2023-04-23T08:35:02;-9818.75;;;14.29;100.00
9460;BME280;4768;42.664;23.240;2023-04-23T08:37:29;-9833.84;;;14.82;100.00
9460;BME280;4768;42.664;23.240;2023-04-23T08:39:56;-9793.84;;;13.43;100.00
9460;BME280;4768;42.664;23.240;2023-04-23T08:42:28;-9820.19;;;14.34;100.00
9460;BME280;4768;42.664;23.240;2023-04-23T08:44:56;-9837.13;;;14.93;100.00
9460;BME280;4768;42.664;23.240;2023-04-23T08:47:23;-9843.22;;;15.14;100.00
9460;BME280;4768;42.664;23.240;2023-04-23T08:49:53;-9816.63;;;14.22;100.00
9460;BME280;4768;42.664;23.240;2023-04-23T08:52:23;-9819.19;;;14.31;100.00
9460;BME280;4768;42.664;23.240;2023-04-23T08:54:52;-9825.16;;;14.51;100.00
9460;BME280;4768;42.664;23.240;2023-04-23T08:57:19;-9840.25;;;15.04;100.00
9460;BME280;4768;42.664;23.240;2023-04-23T08:59:46;-9853.91;;;15.51;100.00
9460;BME280;4768;42.664;23.240;2023-04-23T09:02:13;-9851.94;;;15.45;100.00
9460;BME280;4768;42.664;23.240;2023-04-23T09:04:42;-9816.75;;;14.22;100.00
9460;BME280;4768;42.664;23.240;2023-04-23T09:07:11;-9814.34;;;14.14;100.00
9460;BME280;4768;42.664;23.240;2023-04-23T09:09:39;-9793.56;;;13.42;100.00
9460;BME280;4768;42.664;23.240;2023-04-23T09:12:07;-9832.97;;;14.79;100.00
9460;BME280;4768;42.664;23.240;2023-04-23T09:14:34;-9826.16;;;14.55;100.00
9460;BME280;4768;42.664;23.240;2023-04-23T09:17:02;-8807.00;;;15.05;100.00
9460;BME280;4768;42.664;23.240;2023-04-23T09:19:28;2567.22;;;14.53;100.00
9460;BME280;4768;42.664;23.240;2023-04-23T09:21:56;6361.03;;;15.15;100.00
9460;BME280;4768;42.664;23.240;2023-04-23T09:24:26;24035.88;;;15.26;100.00
9460;BME280;4768;42.664;23.240;2023-04-23T09:26:56;21597.31;;;14.94;100.00
9460;BME280;4768;42.664;23.240;2023-04-23T09:29:23;12583.16;;;14.57;100.00
9460;BME280;4768;42.664;23.240;2023-04-23T09:31:52;18814.19;;;14.50;100.00
9460;BME280;4768;42.664;23.240;2023-04-23T09:34:20;4639.28;;;14.09;100.00
9460;BME280;4768;42.664;23.240;2023-04-23T09:36:49;4639.91;;;13.98;100.00
9460;BME280;4768;42.664;23.240;2023-04-23T09:39:17;6017.59;;;14.48;100.00
9460;BME280;4768;42.664;23.240;2023-04-23T09:41:45;8434.22;;;13.82;100.00
9460;BME280;4768;42.664;23.240;2023-04-23T09:44:17;6020.47;;;13.57;100.00
9460;BME280;4768;42.664;23.240;2023-04-23T09:46:46;3952.50;;;13.67;100.00
9460;BME280;4768;42.664;23.240;2023-04-23T09:49:14;7399.41;;;13.60;100.00
9460;BME280;4768;42.664;23.240;2023-04-23T09:51:42;9124.50;;;13.87;100.00
9460;BME280;4768;42.664;23.240;2023-04-23T09:54:13;8434.91;;;14.75;100.00
9460;BME280;4768;42.664;23.240;2023-04-23T09:56:41;26116.13;;;15.07;100.00
9460;BME280;4768;42.664;23.240;2023-04-23T09:59:23;37965.28;;;15.27;100.00
9460;BME280;4768;42.664;23.240;2023-04-23T10:01:50;56136.63;;;14.97;100.00
9460;BME280;4768;42.664;23.240;2023-04-23T10:04:18;74424.81;;;15.01;100.00
9460;BME280;4768;42.664;23.240;2023-04-23T10:06:47;59976.03;;;14.73;100.00
9460;BME280;4768;42.664;23.240;2023-04-23T10:09:14;60009.63;;;15.13;100.00
9460;BME280;4768;42.664;23.240;2023-04-23T10:11:41;80816.06;;;15.34;100.00
9460;BME280;4768;42.664;23.240;2023-04-23T10:14:08;107665.84;;;14.63;100.00
9460;BME280;4768;42.664;23.240;2023-04-23T10:16:38;80112.78;;;15.37;100.00
9460;BME280;4768;42.664;23.240;2023-04-23T10:19:08;116723.47;;;15.48;100.00
9460;BME280;4768;42.664;23.240;2023-04-23T10:21:40;109487.22;;;14.89;100.00
9460;BME280;4768;42.664;23.240;2023-04-23T10:24:08;104960.31;;;15.51;100.00
9460;BME280;4768;42.664;23.240;2023-04-23T10:26:37;168324.78;;;15.32;100.00
9460;BME280;4768;42.664;23.240;2023-04-23T10:29:08;155441.75;;;15.20;100.00
9460;BME280;4768;42.664;23.240;2023-04-23T10:31:41;128985.13;;;15.97;100.00
9460;BME280;4768;42.664;23.240;2023-04-23T10:34:09;171140.81;;;15.75;100.00
9460;BME280;4768;42.664;23.240;2023-04-23T10:36:36;171088.66;;;15.56;100.00
9460;BME280;4768;42.664;23.240;2023-04-23T10:39:03;171001.75;;;15.24;100.00
9460;BME280;4768;42.664;23.240;2023-04-23T10:41:34;171186.25;;;15.92;100.00
9460;BME280;4768;42.664;23.240;2023-04-23T10:44:02;171274.56;;;16.25;100.00
9460;BME280;4768;42.664;23.240;2023-04-23T10:46:30;171031.16;;;15.35;100.00
9460;BME280;4768;42.664;23.240;2023-04-23T10:49:10;171032.53;;;15.35;100.00
9460;BME280;4768;42.664;23.240;2023-04-23T10:51:39;171120.75;;;15.68;100.00
9460;BME280;4768;42.664;23.240;2023-04-23T10:54:07;171180.91;;;15.90;100.00
9460;BME280;4768;42.664;23.240;2023-04-23T10:56:37;171218.34;;;16.04;100.00
9460;BME280;4768;42.664;23.240;2023-04-23T10:59:05;171316.06;;;16.40;100.00
9460;BME280;4768;42.664;23.240;2023-04-23T11:01:33;171378.94;;;16.63;100.00
9460;BME280;4768;42.664;23.240;2023-04-23T11:04:19;171308.03;;;16.37;100.00
9460;BME280;4768;42.664;23.240;2023-04-23T11:06:52;171265.16;;;16.21;100.00
9460;BME280;4768;42.664;23.240;2023-04-23T11:09:39;171451.19;;;16.90;100.00
9460;BME280;4768;42.664;23.240;2023-04-23T11:12:10;171287.97;;;16.30;100.00
9460;BME280;4768;42.664;23.240;2023-04-23T11:14:47;171310.66;;;16.38;100.00
9460;BME280;4768;42.664;23.240;2023-04-23T11:17:15;171318.69;;;16.41;100.00
9460;BME280;4768;42.664;23.240;2023-04-23T11:20:07;171321.38;;;16.42;100.00
9460;BME280;4768;42.664;23.240;2023-04-23T11:22:35;171512.72;;;17.13;100.00
9460;BME280;4768;42.664;23.240;2023-04-23T11:25:03;171365.53;;;16.58;100.00
9460;BME280;4768;42.664;23.240;2023-04-23T11:27:31;171382.94;;;16.65;100.00
9460;BME280;4768;42.664;23.240;2023-04-23T11:29:57;171381.56;;;16.64;100.00
9460;BME280;4768;42.664;23.240;2023-04-23T11:32:26;171218.34;;;16.04;100.00
9460;BME280;4768;42.664;23.240;2023-04-23T11:34:55;171255.81;;;16.18;100.00
9460;BME280;4768;42.664;23.240;2023-04-23T11:37:23;171354.84;;;16.54;100.00
9460;BME280;4768;42.664;23.240;2023-04-23T11:39:51;171333.41;;;16.46;100.00
9460;BME280;4768;42.664;23.240;2023-04-23T11:42:17;171348.16;;;16.52;100.00
9460;BME280;4768;42.664;23.240;2023-04-23T11:44:46;171463.22;;;16.94;100.00
9460;BME280;4768;42.664;23.240;2023-04-23T11:47:14;171425.72;;;16.81;100.00
9460;BME280;4768;42.664;23.240;2023-04-23T11:49:43;171399.00;;;16.71;100.00
9460;BME280;4768;42.664;23.240;2023-04-23T11:52:11;171397.63;;;16.70;94.90
9460;BME280;4768;42.664;23.240;2023-04-23T11:54:39;171585.03;;;17.40;90.84
9460;BME280;4768;42.664;23.240;2023-04-23T11:57:06;171718.91;;;17.89;96.22
9460;BME280;4768;42.664;23.240;2023-04-23T11:59:33;171532.78;;;17.20;89.99
9460;BME280;4768;42.664;23.240;2023-04-23T12:02:00;171479.28;;;17.00;80.26
9460;BME280;4768;42.664;23.240;2023-04-23T12:04:28;171393.63;;;16.69;73.18
9460;BME280;4768;42.664;23.240;2023-04-23T12:06:56;171255.81;;;16.18;82.92
9460;BME280;4768;42.664;23.240;2023-04-23T12:09:26;171419.06;;;16.78;88.19
9460;BME280;4768;42.664;23.240;2023-04-23T12:11:55;171516.72;;;17.14;87.14
9460;BME280;4768;42.664;23.240;2023-04-23T12:14:26;171377.56;;;16.63;83.60
9460;BME280;4768;42.664;23.240;2023-04-23T12:16:54;171332.09;;;16.46;81.99
9460;BME280;4768;42.664;23.240;2023-04-23T12:19:26;171389.59;;;16.67;82.75
9460;BME280;4768;42.664;23.240;2023-04-23T12:21:55;171485.94;;;17.03;73.20
9460;BME280;4768;42.664;23.240;2023-04-23T12:24:25;171609.13;;;17.48;64.84
9460;BME280;4768;42.664;23.240;2023-04-23T12:26:53;171583.69;;;17.39;57.49
9460;BME280;4768;42.664;23.240;2023-04-23T12:29:21;171543.56;;;17.24;56.38
9460;BME280;4768;42.664;23.240;2023-04-23T12:31:48;171385.59;;;16.66;48.22
9460;BME280;4768;42.664;23.240;2023-04-23T12:34:16;171530.13;;;17.19;52.23
9460;BME280;4768;42.664;23.240;2023-04-23T12:36:45;171492.63;;;17.05;51.95
9460;BME280;4768;42.664;23.240;2023-04-23T12:39:25;171511.38;;;17.12;53.78
9460;BME280;4768;42.664;23.240;2023-04-23T12:41:56;171444.47;;;16.88;54.29
9460;BME280;4768;42.664;23.240;2023-04-23T12:44:27;171420.38;;;16.79;60.21
9460;BME280;4768;42.664;23.240;2023-04-23T12:46:55;171476.59;;;16.99;69.74
9460;BME280;4768;42.664;23.240;2023-04-23T12:49:21;171516.72;;;17.14;71.81
9460;BME280;4768;42.664;23.240;2023-04-23T12:51:48;171445.78;;;16.88;75.80
9460;BME280;4768;42.664;23.240;2023-04-23T12:54:16;171377.56;;;16.63;74.15
9460;BME280;4768;42.664;23.240;2023-04-23T12:56:45;171360.19;;;16.56;76.84
9460;BME280;4768;42.664;23.240;2023-04-23T12:59:11;171374.91;;;16.62;78.62
9460;BME280;4768;42.664;23.240;2023-04-23T13:01:38;171352.16;;;16.53;77.49
9460;BME280;4768;42.664;23.240;2023-04-23T13:04:05;171429.72;;;16.82;75.14
9460;BME280;4768;42.664;23.240;2023-04-23T13:06:32;171544.88;;;17.25;76.65
9460;BME280;4768;42.664;23.240;2023-04-23T13:08:59;171544.88;;;17.25;73.89